Terminal Aerodrome Forecast
Issued by NWS

Current Version | Previous Version | Graphics & Text | Print | Product List | Glossary On
Versions: 1 2 3 4 5 6 7 8 9 10 11 12 13 14 15 16 17 18
000
FTUS41 KPBZ 150500
TAFMGW
TAF
KMGW 150520Z 1506/1606 18008KT P6SM -SHRA OVC050
     FM150800 25012KT 5SM -RA OVC015
     FM151000 30012G22KT 4SM -SHRA OVC008
     FM151600 31012G22KT 6SM -SHSN OVC015
     FM152200 32010G20KT P6SM VCSH BKN025=

USA.gov is the U.S. government's official web portal to all federal, state and local government web resources and services.